Mississippi Star — 9HA2441 — position and weather

sailwx.info

Track history (hours):
 
Tides and Currents Weather Stations Pressure Air Temp Water Temp Dewpoint Dewpoint Depression Visibility Wind Speed Wind Dir Waves Ship Positions

Mississippi Star

Last reported at 2018-Jan-24 01:30 UTC. Time now 2018-Jan-24 01:46 UTC.
Position N 51°30' E 000°50'.

Length 128 m; draft 8.2 m.

Type: Ship (hazmat cat D). MMSI: 248621000.

Date/timePositionNaut miles runAvg speedWind from/ knotsBaromVisibWave heightAir tempDewpointWater temp
2018-Jan-24 01:30N 51°30' E 000°50'0 0.0
2018-Jan-24 01:00N 51°30' E 000°50'0 0.0
2018-Jan-24 00:30N 51°30' E 000°50'0 0.1
2018-Jan-24 00:00N 51°30' E 000°50'0 0.2
2018-Jan-23 23:30N 51°30' E 000°50'0 0.1
2018-Jan-23 23:00N 51°30' E 000°50'0 0.0
2018-Jan-23 22:30N 51°30' E 000°50'0 0.1
2018-Jan-23 22:00N 51°30' E 000°50'0 0.0
2018-Jan-23 21:31N 51°30' E 000°50'0 0.0
2018-Jan-23 21:00N 51°30' E 000°50'0 0.0
2018-Jan-23 20:30N 51°30' E 000°50'0 0.0
2018-Jan-23 20:00N 51°30' E 000°50'0 0.0
2018-Jan-23 19:31N 51°30' E 000°50'0 0.0
2018-Jan-23 19:00N 51°30' E 000°50'0 0.2
2018-Jan-23 18:30N 51°30' E 000°50'3 5.7
2018-Jan-23 18:00N 51°29' E 000°46'714.1
2018-Jan-23 17:30N 51°30' E 000°34'611.5
2018-Jan-23 17:01N 51°27' E 000°26'4 8.1
2018-Jan-23 16:31N 51°28' E 000°20'4 8.4
2018-Jan-23 16:00N 51°28' E 000°27'510.1
2018-Jan-23 15:30N 51°30' E 000°33'611.2
2018-Jan-23 15:00N 51°30' E 000°42'713.0
2018-Jan-23 14:30N 51°29' E 000°53'612.8
2018-Jan-23 14:00N 51°30' E 001°03'713.4
2018-Jan-23 13:30N 51°29' E 001°14'713.1
2018-Jan-23 13:00N 51°28' E 001°24'5 9.4
2018-Jan-23 12:30N 51°25' E 001°30'3 5.2
2018-Jan-23 12:00N 51°28' E 001°32'3 5.9
2018-Jan-23 11:30N 51°31' E 001°33'1 2.4
2018-Jan-23 11:00N 51°32' E 001°33'0 0.4
2018-Jan-23 10:30N 51°32' E 001°33'1 2.5
2018-Jan-23 10:01N 51°33' E 001°32'0 0.3
2018-Jan-23 09:30N 51°33' E 001°32'0 0.1
2018-Jan-23 09:00N 51°33' E 001°32'0 0.0
2018-Jan-23 08:30N 51°33' E 001°32'0 0.0
2018-Jan-23 08:00N 51°33' E 001°32'0 0.0
2018-Jan-23 07:30N 51°33' E 001°32'0 0.0
2018-Jan-23 07:00N 51°33' E 001°32'0 0.0
2018-Jan-23 06:30N 51°33' E 001°32'0 0.0
2018-Jan-23 06:00N 51°33' E 001°32'0 0.0
2018-Jan-23 05:30N 51°33' E 001°32'0 0.0
2018-Jan-23 05:00N 51°33' E 001°32'0 0.0
2018-Jan-23 04:30N 51°33' E 001°32'0 0.0
2018-Jan-23 04:00N 51°33' E 001°32'0 0.0
2018-Jan-23 03:30N 51°33' E 001°32'0 0.1
2018-Jan-23 03:00N 51°33' E 001°32'0 0.1
2018-Jan-23 02:30N 51°33' E 001°32'0 0.1
2018-Jan-23 02:00N 51°33' E 001°32'0 0.0
2018-Jan-23 01:30N 51°33' E 001°32'0 0.0
2018-Jan-23 01:00N 51°32' E 001°32'0 0.0
2018-Jan-23 00:30N 51°32' E 001°32'0 0.0
2018-Jan-23 00:00N 51°32' E 001°32'0 0.2
2018-Jan-22 23:30N 51°33' E 001°32'0 0.0
2018-Jan-22 23:00N 51°33' E 001°32'0 0.0
2018-Jan-22 22:30N 51°33' E 001°32'0 0.1
2018-Jan-22 22:00N 51°33' E 001°32'0 0.1
2018-Jan-22 21:30N 51°33' E 001°32'0 0.1
2018-Jan-22 21:00N 51°33' E 001°32'0 0.0
2018-Jan-22 20:30N 51°33' E 001°32'0 0.0
2018-Jan-22 20:00N 51°33' E 001°32'0 0.0
2018-Jan-22 19:30N 51°33' E 001°32'0 0.0
2018-Jan-22 19:00N 51°33' E 001°32'0 0.0
2018-Jan-22 18:30N 51°33' E 001°32'0 0.0
2018-Jan-22 18:00N 51°33' E 001°32'0 0.0
2018-Jan-22 17:27N 51°33' E 001°32'0 0.0
2018-Jan-22 17:00N 51°33' E 001°32'0 0.0
2018-Jan-22 16:30N 51°33' E 001°32'0 0.1
2018-Jan-22 16:00N 51°33' E 001°32'0 0.1
2018-Jan-22 15:30N 51°33' E 001°32'0 0.0
2018-Jan-22 15:00N 51°33' E 001°32'0 0.0
2018-Jan-22 14:30N 51°33' E 001°32'0 0.0
2018-Jan-22 14:00N 51°33' E 001°32'0 0.1
2018-Jan-22 13:30N 51°33' E 001°32'0 0.1
2018-Jan-22 13:00N 51°33' E 001°32'0 0.1
2018-Jan-22 12:30N 51°33' E 001°32'0 0.0
2018-Jan-22 12:00N 51°33' E 001°32'0 0.0
2018-Jan-22 11:30N 51°33' E 001°32'0 0.0
2018-Jan-22 11:00N 51°33' E 001°32'0 0.1
2018-Jan-22 10:30N 51°32' E 001°32'0 0.1
2018-Jan-22 10:00N 51°32' E 001°32'0 0.1
2018-Jan-22 09:27N 51°33' E 001°32'0 0.1
2018-Jan-22 09:00N 51°33' E 001°32'0 0.1
2018-Jan-22 08:30N 51°33' E 001°32'0 0.1
2018-Jan-22 08:00N 51°33' E 001°32'0 0.0
2018-Jan-22 07:30N 51°33' E 001°32'0 0.0
2018-Jan-22 07:00N 51°33' E 001°32'0 0.0
2018-Jan-22 06:30N 51°33' E 001°32'0 0.0
2018-Jan-22 06:00N 51°33' E 001°32'0 0.7
2018-Jan-22 05:30N 51°33' E 001°33'4 7.7
2018-Jan-22 05:00N 51°32' E 001°39'510.1
2018-Jan-22 04:30N 51°34' E 001°46'510.2
2018-Jan-22 04:00N 51°35' E 001°55'5 9.9
2018-Jan-22 03:30N 51°39' E 002°00'510.5
2018-Jan-22 03:00N 51°43' E 002°05'611.2
2018-Jan-22 02:28N 51°48' E 002°11'35211.5
2018-Jan-20 19:47N 56°49' E 007°23'311.4
2018-Jan-20 19:30N 56°52' E 007°26'611.5
2018-Jan-20 18:59N 56°57' E 007°32'611.3
2018-Jan-20 18:30N 57°01' E 007°37'11111.0
2018-Jan-20 08:24N 58°02' E 010°31'611.9
2018-Jan-20 07:54N 58°05' E 010°40'512.0
2018-Jan-20 07:30N 58°08' E 010°48'712.1
2018-Jan-20 06:53N 58°11' E 011°00'511.8
2018-Jan-20 06:30N 58°14' E 011°08'511.0
2018-Jan-20 06:00N 58°17' E 011°16'712.1
2018-Jan-20 05:28N 58°21' E 011°25'1 0.0
2018-Jan-19 08:54N 58°21' E 011°26'2 5.1
2018-Jan-19 08:30N 58°20' E 011°23'612.7
2018-Jan-19 08:01N 58°16' E 011°15'5 9.1
2018-Jan-19 07:30N 58°11' E 011°12'0 0.2
2018-Jan-19 06:58N 58°11' E 011°12'0 0.0
2018-Jan-19 06:28N 58°11' E 011°12'0 0.0
2018-Jan-19 05:58N 58°11' E 011°12'0 0.0
2018-Jan-19 05:28N 58°11' E 011°12'0 0.0
2018-Jan-19 04:52N 58°11' E 011°12'0 0.0
2018-Jan-19 04:28N 58°11' E 011°12'0 0.0
2018-Jan-19 03:55N 58°11' E 011°12'0 0.0
2018-Jan-19 03:28N 58°11' E 011°12'0 0.0
2018-Jan-19 02:55N 58°11' E 011°12'0 0.0
2018-Jan-19 02:28N 58°11' E 011°12'0 0.0
2018-Jan-19 01:55N 58°11' E 011°12'0 0.0
2018-Jan-19 01:28N 58°11' E 011°12'0 0.0
2018-Jan-19 00:58N 58°11' E 011°12'0 0.0
2018-Jan-19 00:28N 58°11' E 011°12'0 0.0
2018-Jan-18 23:52N 58°11' E 011°12'0 0.0
2018-Jan-18 23:25N 58°11' E 011°12'0 0.0
2018-Jan-18 22:58N 58°11' E 011°12'0 0.0
2018-Jan-18 22:22N 58°11' E 011°12'0 0.0
2018-Jan-18 21:58N 58°11' E 011°12'0 0.0
2018-Jan-18 21:28N 58°11' E 011°12'0 0.0
2018-Jan-18 20:55N 58°11' E 011°12'0 0.0
2018-Jan-18 20:19N 58°11' E 011°12'0 0.0
2018-Jan-18 19:58N 58°11' E 011°12'0 0.0
2018-Jan-18 19:25N 58°11' E 011°12'0 0.0
2018-Jan-18 18:55N 58°11' E 011°12'0 0.0
2018-Jan-18 18:28N 58°11' E 011°12'0 0.0
2018-Jan-18 17:58N 58°11' E 011°12'0 0.0
2018-Jan-18 17:28N 58°11' E 011°12'0 0.0
2018-Jan-18 16:58N 58°11' E 011°12'0 0.0
2018-Jan-18 16:28N 58°11' E 011°12'0 0.0
2018-Jan-18 15:58N 58°11' E 011°12'0 0.0
2018-Jan-18 15:25N 58°11' E 011°12'0 0.0
2018-Jan-18 14:49N 58°11' E 011°12'0 0.0
2018-Jan-18 14:28N 58°11' E 011°12'0 0.0
2018-Jan-18 13:58N 58°11' E 011°12'0 0.0
2018-Jan-18 13:25N 58°11' E 011°12'0 0.0
2018-Jan-18 12:58N 58°11' E 011°12'0 0.0
2018-Jan-18 12:28N 58°11' E 011°12'0 0.0
2018-Jan-18 11:58N 58°11' E 011°12'0 0.0
2018-Jan-18 11:25N 58°11' E 011°12'0 0.0
2018-Jan-18 10:58N 58°11' E 011°12'0 0.0
2018-Jan-18 10:28N 58°11' E 011°12'0 0.0
2018-Jan-18 09:58N 58°11' E 011°12'0 0.0
2018-Jan-18 09:28N 58°11' E 011°12'0 0.0
2018-Jan-18 08:58N 58°11' E 011°12'0 0.0
2018-Jan-18 08:28N 58°11' E 011°12'0 0.0
2018-Jan-18 07:58N 58°11' E 011°12'0 0.0
2018-Jan-18 07:28N 58°11' E 011°12'0 0.0
2018-Jan-18 06:55N 58°11' E 011°12'0 0.0
2018-Jan-18 06:28N 58°11' E 011°12'0 0.0
2018-Jan-18 05:58N 58°11' E 011°12'0 0.0
2018-Jan-18 05:28N 58°11' E 011°12'0 0.0
2018-Jan-18 04:55N 58°11' E 011°12'0 0.0
2018-Jan-18 04:28N 58°11' E 011°12'0 0.0
2018-Jan-18 03:58N 58°11' E 011°12'0 0.0
2018-Jan-18 03:28N 58°11' E 011°12'0 0.0
2018-Jan-18 02:58N 58°11' E 011°12'0 0.0
2018-Jan-18 02:28N 58°11' E 011°12'0 0.1
2018-Jan-18 01:58N 58°11' E 011°12'0 0.0
2018-Jan-18 01:28N 58°11' E 011°12'0 0.0
2018-Jan-18 00:55N 58°11' E 011°12'0 0.0
2018-Jan-17 23:58N 58°11' E 011°12'0 0.0
2018-Jan-17 23:52N 58°11' E 011°12'  
Track history (hours):
 
Tides and Currents Weather Stations Pressure Air Temp Water Temp Dewpoint Dewpoint Depression Visibility Wind Speed Wind Dir Waves Ship Positions

Mississippi Star

Last reported at 2018-Jan-24 01:30 UTC. Time now 2018-Jan-24 01:46 UTC.
Position N 51°30' E 000°50'.

Length 128 m; draft 8.2 m.

Type: Ship (hazmat cat D). MMSI: 248621000.

Date/timePositionNaut miles runAvg speedWind from/ knotsBaromVisibWave heightAir tempDewpointWater temp
2018-Jan-24 01:30N 51°30' E 000°50'0 0.0
2018-Jan-24 01:00N 51°30' E 000°50'0 0.0
2018-Jan-24 00:30N 51°30' E 000°50'0 0.1
2018-Jan-24 00:00N 51°30' E 000°50'0 0.2
2018-Jan-23 23:30N 51°30' E 000°50'0 0.1
2018-Jan-23 23:00N 51°30' E 000°50'0 0.0
2018-Jan-23 22:30N 51°30' E 000°50'0 0.1
2018-Jan-23 22:00N 51°30' E 000°50'0 0.0
2018-Jan-23 21:31N 51°30' E 000°50'0 0.0
2018-Jan-23 21:00N 51°30' E 000°50'0 0.0
2018-Jan-23 20:30N 51°30' E 000°50'0 0.0
2018-Jan-23 20:00N 51°30' E 000°50'0 0.0
2018-Jan-23 19:31N 51°30' E 000°50'0 0.0
2018-Jan-23 19:00N 51°30' E 000°50'0 0.2
2018-Jan-23 18:30N 51°30' E 000°50'3 5.7
2018-Jan-23 18:00N 51°29' E 000°46'714.1
2018-Jan-23 17:30N 51°30' E 000°34'611.5
2018-Jan-23 17:01N 51°27' E 000°26'4 8.1
2018-Jan-23 16:31N 51°28' E 000°20'4 8.4
2018-Jan-23 16:00N 51°28' E 000°27'510.1
2018-Jan-23 15:30N 51°30' E 000°33'611.2
2018-Jan-23 15:00N 51°30' E 000°42'713.0
2018-Jan-23 14:30N 51°29' E 000°53'612.8
2018-Jan-23 14:00N 51°30' E 001°03'713.4
2018-Jan-23 13:30N 51°29' E 001°14'713.1
2018-Jan-23 13:00N 51°28' E 001°24'5 9.4
2018-Jan-23 12:30N 51°25' E 001°30'3 5.2
2018-Jan-23 12:00N 51°28' E 001°32'3 5.9
2018-Jan-23 11:30N 51°31' E 001°33'1 2.4
2018-Jan-23 11:00N 51°32' E 001°33'0 0.4
2018-Jan-23 10:30N 51°32' E 001°33'1 2.5
2018-Jan-23 10:01N 51°33' E 001°32'0 0.3
2018-Jan-23 09:30N 51°33' E 001°32'0 0.1
2018-Jan-23 09:00N 51°33' E 001°32'0 0.0
2018-Jan-23 08:30N 51°33' E 001°32'0 0.0
2018-Jan-23 08:00N 51°33' E 001°32'0 0.0
2018-Jan-23 07:30N 51°33' E 001°32'0 0.0
2018-Jan-23 07:00N 51°33' E 001°32'0 0.0
2018-Jan-23 06:30N 51°33' E 001°32'0 0.0
2018-Jan-23 06:00N 51°33' E 001°32'0 0.0
2018-Jan-23 05:30N 51°33' E 001°32'0 0.0
2018-Jan-23 05:00N 51°33' E 001°32'0 0.0
2018-Jan-23 04:30N 51°33' E 001°32'0 0.0
2018-Jan-23 04:00N 51°33' E 001°32'0 0.0
2018-Jan-23 03:30N 51°33' E 001°32'0 0.1
2018-Jan-23 03:00N 51°33' E 001°32'0 0.1
2018-Jan-23 02:30N 51°33' E 001°32'0 0.1
2018-Jan-23 02:00N 51°33' E 001°32'0 0.0
2018-Jan-23 01:30N 51°33' E 001°32'0 0.0
2018-Jan-23 01:00N 51°32' E 001°32'0 0.0
2018-Jan-23 00:30N 51°32' E 001°32'0 0.0
2018-Jan-23 00:00N 51°32' E 001°32'0 0.2
2018-Jan-22 23:30N 51°33' E 001°32'0 0.0
2018-Jan-22 23:00N 51°33' E 001°32'0 0.0
2018-Jan-22 22:30N 51°33' E 001°32'0 0.1
2018-Jan-22 22:00N 51°33' E 001°32'0 0.1
2018-Jan-22 21:30N 51°33' E 001°32'0 0.1
2018-Jan-22 21:00N 51°33' E 001°32'0 0.0
2018-Jan-22 20:30N 51°33' E 001°32'0 0.0
2018-Jan-22 20:00N 51°33' E 001°32'0 0.0
2018-Jan-22 19:30N 51°33' E 001°32'0 0.0
2018-Jan-22 19:00N 51°33' E 001°32'0 0.0
2018-Jan-22 18:30N 51°33' E 001°32'0 0.0
2018-Jan-22 18:00N 51°33' E 001°32'0 0.0
2018-Jan-22 17:27N 51°33' E 001°32'0 0.0
2018-Jan-22 17:00N 51°33' E 001°32'0 0.0
2018-Jan-22 16:30N 51°33' E 001°32'0 0.1
2018-Jan-22 16:00N 51°33' E 001°32'0 0.1
2018-Jan-22 15:30N 51°33' E 001°32'0 0.0
2018-Jan-22 15:00N 51°33' E 001°32'0 0.0
2018-Jan-22 14:30N 51°33' E 001°32'0 0.0
2018-Jan-22 14:00N 51°33' E 001°32'0 0.1
2018-Jan-22 13:30N 51°33' E 001°32'0 0.1
2018-Jan-22 13:00N 51°33' E 001°32'0 0.1
2018-Jan-22 12:30N 51°33' E 001°32'0 0.0
2018-Jan-22 12:00N 51°33' E 001°32'0 0.0
2018-Jan-22 11:30N 51°33' E 001°32'0 0.0
2018-Jan-22 11:00N 51°33' E 001°32'0 0.1
2018-Jan-22 10:30N 51°32' E 001°32'0 0.1
2018-Jan-22 10:00N 51°32' E 001°32'0 0.1
2018-Jan-22 09:27N 51°33' E 001°32'0 0.1
2018-Jan-22 09:00N 51°33' E 001°32'0 0.1
2018-Jan-22 08:30N 51°33' E 001°32'0 0.1
2018-Jan-22 08:00N 51°33' E 001°32'0 0.0
2018-Jan-22 07:30N 51°33' E 001°32'0 0.0
2018-Jan-22 07:00N 51°33' E 001°32'0 0.0
2018-Jan-22 06:30N 51°33' E 001°32'0 0.0
2018-Jan-22 06:00N 51°33' E 001°32'0 0.7
2018-Jan-22 05:30N 51°33' E 001°33'4 7.7
2018-Jan-22 05:00N 51°32' E 001°39'510.1
2018-Jan-22 04:30N 51°34' E 001°46'510.2
2018-Jan-22 04:00N 51°35' E 001°55'5 9.9
2018-Jan-22 03:30N 51°39' E 002°00'510.5
2018-Jan-22 03:00N 51°43' E 002°05'611.2
2018-Jan-22 02:28N 51°48' E 002°11'35211.5
2018-Jan-20 19:47N 56°49' E 007°23'311.4
2018-Jan-20 19:30N 56°52' E 007°26'611.5
2018-Jan-20 18:59N 56°57' E 007°32'611.3
2018-Jan-20 18:30N 57°01' E 007°37'11111.0
2018-Jan-20 08:24N 58°02' E 010°31'611.9
2018-Jan-20 07:54N 58°05' E 010°40'512.0
2018-Jan-20 07:30N 58°08' E 010°48'712.1
2018-Jan-20 06:53N 58°11' E 011°00'511.8
2018-Jan-20 06:30N 58°14' E 011°08'511.0
2018-Jan-20 06:00N 58°17' E 011°16'712.1
2018-Jan-20 05:28N 58°21' E 011°25'1 0.0
2018-Jan-19 08:54N 58°21' E 011°26'2 5.1
2018-Jan-19 08:30N 58°20' E 011°23'612.7
2018-Jan-19 08:01N 58°16' E 011°15'5 9.1
2018-Jan-19 07:30N 58°11' E 011°12'0 0.2
2018-Jan-19 06:58N 58°11' E 011°12'0 0.0
2018-Jan-19 06:28N 58°11' E 011°12'0 0.0
2018-Jan-19 05:58N 58°11' E 011°12'0 0.0
2018-Jan-19 05:28N 58°11' E 011°12'0 0.0
2018-Jan-19 04:52N 58°11' E 011°12'0 0.0
2018-Jan-19 04:28N 58°11' E 011°12'0 0.0
2018-Jan-19 03:55N 58°11' E 011°12'0 0.0
2018-Jan-19 03:28N 58°11' E 011°12'0 0.0
2018-Jan-19 02:55N 58°11' E 011°12'0 0.0
2018-Jan-19 02:28N 58°11' E 011°12'0 0.0
2018-Jan-19 01:55N 58°11' E 011°12'0 0.0
2018-Jan-19 01:28N 58°11' E 011°12'0 0.0
2018-Jan-19 00:58N 58°11' E 011°12'0 0.0
2018-Jan-19 00:28N 58°11' E 011°12'0 0.0
2018-Jan-18 23:52N 58°11' E 011°12'0 0.0
2018-Jan-18 23:25N 58°11' E 011°12'0 0.0
2018-Jan-18 22:58N 58°11' E 011°12'0 0.0
2018-Jan-18 22:22N 58°11' E 011°12'0 0.0
2018-Jan-18 21:58N 58°11' E 011°12'0 0.0
2018-Jan-18 21:28N 58°11' E 011°12'0 0.0
2018-Jan-18 20:55N 58°11' E 011°12'0 0.0
2018-Jan-18 20:19N 58°11' E 011°12'0 0.0
2018-Jan-18 19:58N 58°11' E 011°12'0 0.0
2018-Jan-18 19:25N 58°11' E 011°12'0 0.0
2018-Jan-18 18:55N 58°11' E 011°12'0 0.0
2018-Jan-18 18:28N 58°11' E 011°12'0 0.0
2018-Jan-18 17:58N 58°11' E 011°12'0 0.0
2018-Jan-18 17:28N 58°11' E 011°12'0 0.0
2018-Jan-18 16:58N 58°11' E 011°12'0 0.0
2018-Jan-18 16:28N 58°11' E 011°12'0 0.0
2018-Jan-18 15:58N 58°11' E 011°12'0 0.0
2018-Jan-18 15:25N 58°11' E 011°12'0 0.0
2018-Jan-18 14:49N 58°11' E 011°12'0 0.0
2018-Jan-18 14:28N 58°11' E 011°12'0 0.0
2018-Jan-18 13:58N 58°11' E 011°12'0 0.0
2018-Jan-18 13:25N 58°11' E 011°12'0 0.0
2018-Jan-18 12:58N 58°11' E 011°12'0 0.0
2018-Jan-18 12:28N 58°11' E 011°12'0 0.0
2018-Jan-18 11:58N 58°11' E 011°12'0 0.0
2018-Jan-18 11:25N 58°11' E 011°12'0 0.0
2018-Jan-18 10:58N 58°11' E 011°12'0 0.0
2018-Jan-18 10:28N 58°11' E 011°12'0 0.0
2018-Jan-18 09:58N 58°11' E 011°12'0 0.0
2018-Jan-18 09:28N 58°11' E 011°12'0 0.0
2018-Jan-18 08:58N 58°11' E 011°12'0 0.0
2018-Jan-18 08:28N 58°11' E 011°12'0 0.0
2018-Jan-18 07:58N 58°11' E 011°12'0 0.0
2018-Jan-18 07:28N 58°11' E 011°12'0 0.0
2018-Jan-18 06:55N 58°11' E 011°12'0 0.0
2018-Jan-18 06:28N 58°11' E 011°12'0 0.0
2018-Jan-18 05:58N 58°11' E 011°12'0 0.0
2018-Jan-18 05:28N 58°11' E 011°12'0 0.0
2018-Jan-18 04:55N 58°11' E 011°12'0 0.0
2018-Jan-18 04:28N 58°11' E 011°12'0 0.0
2018-Jan-18 03:58N 58°11' E 011°12'0 0.0
2018-Jan-18 03:28N 58°11' E 011°12'0 0.0
2018-Jan-18 02:58N 58°11' E 011°12'0 0.0
2018-Jan-18 02:28N 58°11' E 011°12'0 0.1
2018-Jan-18 01:58N 58°11' E 011°12'0 0.0
2018-Jan-18 01:28N 58°11' E 011°12'0 0.0
2018-Jan-18 00:55N 58°11' E 011°12'0 0.0
2018-Jan-17 23:58N 58°11' E 011°12'0 0.0
2018-Jan-17 23:52N 58°11' E 011°12'  

Dump ship's entire track history